Few Clouds Current Weather (METAR) For Bournemouth Airport

All times on the weather descriptions are local

Observed at 16:20 - (9 mins ago)

Few Clouds

8°C

Few Clouds
Clouds: Few Clouds at 4,200ft
Wind: 300° at 08 knots
Visibility: Greater than 10km
QNH: 1030
Dew Point: 4°C
Runway in Use: Runway 26

Sunrise Today: 08:04
Sunset Today: 16:05

Forecast Weather (TAF) For Bournemouth Airport

Issued at 00:00 - (10 days 7 hrs ago)


Runway in Use: Unable to determine, wind is clam

Forecast valid until 00:00 on Wednesday

METAR/TAF RAW METAR / TAF

EGHH 201620Z 30008KT 9999 FEW042 08/04 Q1030

Weather Widget

Put weather from any of our airports on your website with our weather widget.

Find Another Search

Airport Search


Please Wait Please Wait - Loading
Close
Close

Login

Username:

Password:

Remember Me:

Remember me on this computer

Forgotten your password? Get a reset password sent to your registered e-mail address

Close

User Private Message

Subject:

Message: